State Hospital, South Carolina
Current Conditions -  °F | °C
As of 1:53 PM on Thursday 23 Oct 2014 (Local Time) from KCUB Reporting Station
Clear Clear  
Wind Chill: 68°   Ceiling: Unl
Heat Index: 68°   Visibility: 10mi
Dew Point: 38°   Wind: 9mph
Humidity: 33%   Direction: 290°WNW
Pressure: 30.04"   Gusts: NA
Location:  33.9841°N, 81.0264°W
Report Text: KCUB 231753Z AUTO 29008KT 260V330 10SM CLR 20/03 A3004 RMK AO2 SLP170 T02000033 10206 20067 58026
Loading
Personal Weather Stations






























Interactive Weather Map
Tropical Storm Tracking
New forecast layout! Learn more

10-Day Weather Forecast

Advertisements
Track Severe Weather on mobile